sensor_id;sensor_type;location;lat;lon;timestamp;pressure;altitude;pressure_sealevel;temperature;humidity
55291;BME280;41155;39.768;2.712;2023-02-23T00:01:18;101192.44;;;12.19;79.32
55291;BME280;41155;39.768;2.712;2023-02-23T00:03:44;101185.06;;;12.15;80.03
55291;BME280;41155;39.768;2.712;2023-02-23T00:06:10;101172.13;;;12.00;79.81
55291;BME280;41155;39.768;2.712;2023-02-23T00:08:37;101184.19;;;12.09;79.95
55291;BME280;41155;39.768;2.712;2023-02-23T00:11:04;101187.06;;;12.03;80.03
55291;BME280;41155;39.768;2.712;2023-02-23T00:13:32;101170.75;;;11.97;80.19
55291;BME280;41155;39.768;2.712;2023-02-23T00:16:09;101167.56;;;12.01;79.91
55291;BME280;41155;39.768;2.712;2023-02-23T00:18:38;101177.41;;;12.07;79.88
55291;BME280;41155;39.768;2.712;2023-02-23T00:21:28;101156.16;;;11.98;79.58
55291;BME280;41155;39.768;2.712;2023-02-23T00:23:59;101165.09;;;11.99;79.31
55291;BME280;41155;39.768;2.712;2023-02-23T00:26:27;101174.69;;;12.07;79.24
55291;BME280;41155;39.768;2.712;2023-02-23T00:28:56;101182.72;;;12.02;79.11
55291;BME280;41155;39.768;2.712;2023-02-23T00:31:23;101178.13;;;12.02;78.76
55291;BME280;41155;39.768;2.712;2023-02-23T00:33:58;101177.94;;;12.09;78.78
55291;BME280;41155;39.768;2.712;2023-02-23T00:36:34;101164.03;;;12.00;78.58
55291;BME280;41155;39.768;2.712;2023-02-23T00:39:03;101172.38;;;12.15;78.25
55291;BME280;41155;39.768;2.712;2023-02-23T00:41:35;101179.91;;;12.13;78.07
55291;BME280;41155;39.768;2.712;2023-02-23T00:44:00;101144.75;;;11.96;78.30
55291;BME280;41155;39.768;2.712;2023-02-23T00:46:28;101157.69;;;12.11;78.15
55291;BME280;41155;39.768;2.712;2023-02-23T00:48:56;101169.28;;;12.29;78.04
55291;BME280;41155;39.768;2.712;2023-02-23T00:51:24;101162.84;;;12.35;77.71
55291;BME280;41155;39.768;2.712;2023-02-23T00:53:56;101144.09;;;12.28;77.39
55291;BME280;41155;39.768;2.712;2023-02-23T00:56:22;101155.94;;;12.44;77.04
55291;BME280;41155;39.768;2.712;2023-02-23T00:58:48;101127.09;;;12.33;76.32
55291;BME280;41155;39.768;2.712;2023-02-23T01:01:14;101143.22;;;12.44;75.91
55291;BME280;41155;39.768;2.712;2023-02-23T01:03:41;101138.84;;;12.43;76.00
55291;BME280;41155;39.768;2.712;2023-02-23T01:06:11;101137.22;;;12.42;76.28
55291;BME280;41155;39.768;2.712;2023-02-23T01:08:42;101132.31;;;12.39;76.44
55291;BME280;41155;39.768;2.712;2023-02-23T01:11:10;101122.50;;;12.33;76.67
55291;BME280;41155;39.768;2.712;2023-02-23T01:13:37;101127.28;;;12.26;77.32
55291;BME280;41155;39.768;2.712;2023-02-23T01:16:04;101114.09;;;12.35;77.31
55291;BME280;41155;39.768;2.712;2023-02-23T01:18:31;101110.00;;;12.32;77.38
55291;BME280;41155;39.768;2.712;2023-02-23T01:20:59;101061.19;;;12.00;77.31
55291;BME280;41155;39.768;2.712;2023-02-23T01:23:24;101108.59;;;12.25;77.46
55291;BME280;41155;39.768;2.712;2023-02-23T01:25:50;101095.56;;;12.21;77.35
55291;BME280;41155;39.768;2.712;2023-02-23T01:28:15;101095.56;;;12.21;77.24
55291;BME280;41155;39.768;2.712;2023-02-23T01:30:41;101101.22;;;12.20;77.26
55291;BME280;41155;39.768;2.712;2023-02-23T01:33:06;101097.19;;;12.23;77.13
55291;BME280;41155;39.768;2.712;2023-02-23T01:35:32;101059.75;;;11.92;76.89
55291;BME280;41155;39.768;2.712;2023-02-23T01:37:58;101104.44;;;12.17;77.03
55291;BME280;41155;39.768;2.712;2023-02-23T01:40:25;101105.44;;;12.11;77.00
55291;BME280;41155;39.768;2.712;2023-02-23T01:43:11;101113.81;;;12.09;77.18
55291;BME280;41155;39.768;2.712;2023-02-23T01:45:39;101114.88;;;11.86;77.58
55291;BME280;41155;39.768;2.712;2023-02-23T01:48:08;101113.78;;;11.87;77.93
55291;BME280;41155;39.768;2.712;2023-02-23T01:50:56;101109.16;;;11.66;78.75
55291;BME280;41155;39.768;2.712;2023-02-23T01:53:24;101117.41;;;11.76;78.81
55291;BME280;41155;39.768;2.712;2023-02-23T01:55:55;101116.41;;;11.65;79.35
55291;BME280;41155;39.768;2.712;2023-02-23T01:58:23;101114.00;;;11.47;80.93
55291;BME280;41155;39.768;2.712;2023-02-23T02:00:55;101097.59;;;11.37;81.30
55291;BME280;41155;39.768;2.712;2023-02-23T02:03:28;101112.19;;;11.52;81.25
55291;BME280;41155;39.768;2.712;2023-02-23T02:05:56;101105.69;;;11.53;80.54
55291;BME280;41155;39.768;2.712;2023-02-23T02:08:23;101070.56;;;11.37;80.83
55291;BME280;41155;39.768;2.712;2023-02-23T02:10:51;101091.56;;;11.46;80.92
55291;BME280;41155;39.768;2.712;2023-02-23T02:13:23;101087.19;;;11.45;81.01
55291;BME280;41155;39.768;2.712;2023-02-23T02:27:05;101067.28;;;11.51;80.94
55291;BME280;41155;39.768;2.712;2023-02-23T02:29:39;101069.50;;;11.54;80.46
55291;BME280;41155;39.768;2.712;2023-02-23T02:40:32;101052.22;;;11.39;80.02
55291;BME280;41155;39.768;2.712;2023-02-23T02:43:20;101037.56;;;11.35;79.73
55291;BME280;41155;39.768;2.712;2023-02-23T02:45:55;101046.50;;;11.35;79.84
55291;BME280;41155;39.768;2.712;2023-02-23T02:48:56;101004.44;;;11.05;80.34
55291;BME280;41155;39.768;2.712;2023-02-23T02:51:27;101000.34;;;11.03;80.05
55291;BME280;41155;39.768;2.712;2023-02-23T02:56:24;101031.19;;;11.24;78.52
55291;BME280;41155;39.768;2.712;2023-02-23T02:58:52;101029.97;;;11.15;79.27
55291;BME280;41155;39.768;2.712;2023-02-23T03:01:19;101016.78;;;11.01;79.37
55291;BME280;41155;39.768;2.712;2023-02-23T03:04:22;101026.56;;;11.02;80.47
55291;BME280;41155;39.768;2.712;2023-02-23T03:07:20;101027.50;;;10.96;81.09
55291;BME280;41155;39.768;2.712;2023-02-23T03:10:31;101038.72;;;11.05;80.66
55291;BME280;41155;39.768;2.712;2023-02-23T03:19:31;101032.59;;;10.93;79.52
55291;BME280;41155;39.768;2.712;2023-02-23T03:22:55;100998.22;;;10.88;79.59
55291;BME280;41155;39.768;2.712;2023-02-23T03:26:03;101023.91;;;11.07;79.50
55291;BME280;41155;39.768;2.712;2023-02-23T03:29:08;101013.94;;;10.91;79.36
55291;BME280;41155;39.768;2.712;2023-02-23T03:34:43;101006.16;;;10.95;79.02
55291;BME280;41155;39.768;2.712;2023-02-23T03:37:44;100951.59;;;10.59;79.34
55291;BME280;41155;39.768;2.712;2023-02-23T03:40:37;100981.63;;;10.79;79.38
55291;BME280;41155;39.768;2.712;2023-02-23T03:43:25;100996.44;;;10.94;79.58
55291;BME280;41155;39.768;2.712;2023-02-23T03:46:13;100979.22;;;10.83;79.33
55291;BME280;41155;39.768;2.712;2023-02-23T03:49:02;100988.56;;;10.92;79.86
55291;BME280;41155;39.768;2.712;2023-02-23T03:51:51;100993.97;;;10.92;79.83
55291;BME280;41155;39.768;2.712;2023-02-23T03:54:42;100993.31;;;10.85;79.73
55291;BME280;41155;39.768;2.712;2023-02-23T03:57:30;101002.16;;;10.80;79.82
55291;BME280;41155;39.768;2.712;2023-02-23T04:00:26;101008.94;;;10.83;79.55
55291;BME280;41155;39.768;2.712;2023-02-23T04:03:14;100985.63;;;10.77;79.45
55291;BME280;41155;39.768;2.712;2023-02-23T04:05:59;100968.69;;;10.65;79.38
55291;BME280;41155;39.768;2.712;2023-02-23T04:08:45;100958.94;;;10.63;79.05
55291;BME280;41155;39.768;2.712;2023-02-23T04:14:26;100986.84;;;10.69;79.02
55291;BME280;41155;39.768;2.712;2023-02-23T04:16:55;100994.13;;;10.69;79.61
55291;BME280;41155;39.768;2.712;2023-02-23T04:19:21;100998.53;;;10.75;79.71
55291;BME280;41155;39.768;2.712;2023-02-23T04:21:46;100987.59;;;10.65;79.70
55291;BME280;41155;39.768;2.712;2023-02-23T04:24:12;100987.91;;;10.68;79.97
55291;BME280;41155;39.768;2.712;2023-02-23T04:26:38;100955.66;;;10.45;79.88
55291;BME280;41155;39.768;2.712;2023-02-23T04:29:03;100975.13;;;10.63;79.86
55291;BME280;41155;39.768;2.712;2023-02-23T04:31:29;100986.59;;;10.71;79.43
55291;BME280;41155;39.768;2.712;2023-02-23T04:33:57;100980.53;;;10.63;79.25
55291;BME280;41155;39.768;2.712;2023-02-23T04:36:22;100989.44;;;10.64;79.70
55291;BME280;41155;39.768;2.712;2023-02-23T04:38:48;100981.34;;;10.64;79.66
55291;BME280;41155;39.768;2.712;2023-02-23T04:41:14;100989.78;;;10.68;79.06
55291;BME280;41155;39.768;2.712;2023-02-23T04:43:39;100976.28;;;10.68;78.72
55291;BME280;41155;39.768;2.712;2023-02-23T04:46:05;100978.41;;;10.66;78.72
55291;BME280;41155;39.768;2.712;2023-02-23T04:48:30;100977.25;;;10.61;78.74
55291;BME280;41155;39.768;2.712;2023-02-23T04:50:56;100958.69;;;10.48;78.93
55291;BME280;41155;39.768;2.712;2023-02-23T04:53:21;100971.84;;;10.61;78.69
55291;BME280;41155;39.768;2.712;2023-02-23T04:55:47;100977.09;;;10.68;78.72
55291;BME280;41155;39.768;2.712;2023-02-23T04:58:12;100969.56;;;10.70;78.52
55291;BME280;41155;39.768;2.712;2023-02-23T05:00:38;100935.91;;;10.44;78.60
55291;BME280;41155;39.768;2.712;2023-02-23T05:03:05;100975.81;;;10.71;78.38
55291;BME280;41155;39.768;2.712;2023-02-23T05:05:30;100978.41;;;10.66;78.33
55291;BME280;41155;39.768;2.712;2023-02-23T05:07:56;100982.75;;;10.67;77.63
55291;BME280;41155;39.768;2.712;2023-02-23T05:10:22;100933.72;;;10.41;77.43
55291;BME280;41155;39.768;2.712;2023-02-23T05:12:47;100971.84;;;10.61;76.86
55291;BME280;41155;39.768;2.712;2023-02-23T05:15:13;100954.34;;;10.47;77.75
55291;BME280;41155;39.768;2.712;2023-02-23T05:17:39;100977.41;;;10.55;78.15
55291;BME280;41155;39.768;2.712;2023-02-23T05:20:09;100975.22;;;10.52;78.75
55291;BME280;41155;39.768;2.712;2023-02-23T05:22:35;100968.66;;;10.48;78.79
55291;BME280;41155;39.768;2.712;2023-02-23T05:25:01;100965.63;;;10.44;78.93
55291;BME280;41155;39.768;2.712;2023-02-23T05:27:28;100956.97;;;10.42;78.86
55291;BME280;41155;39.768;2.712;2023-02-23T05:29:54;100951.47;;;10.37;78.24
55291;BME280;41155;39.768;2.712;2023-02-23T05:32:19;100954.66;;;10.34;78.61
55291;BME280;41155;39.768;2.712;2023-02-23T05:34:46;100952.19;;;10.32;78.67
55291;BME280;41155;39.768;2.712;2023-02-23T05:37:11;100969.28;;;10.38;78.84
55291;BME280;41155;39.768;2.712;2023-02-23T05:39:37;100954.34;;;10.30;78.66
55291;BME280;41155;39.768;2.712;2023-02-23T05:42:02;100954.06;;;10.32;78.47
55291;BME280;41155;39.768;2.712;2023-02-23T05:44:28;100958.44;;;10.33;78.40
55291;BME280;41155;39.768;2.712;2023-02-23T05:46:53;100963.84;;;10.33;78.49
55291;BME280;41155;39.768;2.712;2023-02-23T05:49:19;100958.38;;;10.16;79.09
55291;BME280;41155;39.768;2.712;2023-02-23T05:51:44;100922.81;;;9.90;79.46
55291;BME280;41155;39.768;2.712;2023-02-23T05:54:09;100953.78;;;10.16;78.98
55291;BME280;41155;39.768;2.712;2023-02-23T05:56:36;100932.75;;;10.02;78.94
55291;BME280;41155;39.768;2.712;2023-02-23T05:59:01;100964.91;;;10.20;78.77
55291;BME280;41155;39.768;2.712;2023-02-23T06:01:29;100958.69;;;10.19;78.46
55291;BME280;41155;39.768;2.712;2023-02-23T06:03:55;100957.63;;;10.21;78.24
55291;BME280;41155;39.768;2.712;2023-02-23T06:06:21;100958.00;;;10.12;78.39
55291;BME280;41155;39.768;2.712;2023-02-23T06:08:47;100963.41;;;10.12;78.89
55291;BME280;41155;39.768;2.712;2023-02-23T06:11:14;100936.75;;;9.99;78.84
55291;BME280;41155;39.768;2.712;2023-02-23T06:13:39;100904.00;;;9.79;79.04
55291;BME280;41155;39.768;2.712;2023-02-23T06:16:06;100924.72;;;9.90;78.82
55291;BME280;41155;39.768;2.712;2023-02-23T06:18:32;100956.97;;;10.13;78.80
55291;BME280;41155;39.768;2.712;2023-02-23T06:20:59;100925.84;;;9.94;78.96
55291;BME280;41155;39.768;2.712;2023-02-23T06:23:29;100947.72;;;10.09;79.16
55291;BME280;41155;39.768;2.712;2023-02-23T06:25:55;100935.78;;;10.05;78.61
55291;BME280;41155;39.768;2.712;2023-02-23T06:28:20;100915.88;;;9.94;78.35
55291;BME280;41155;39.768;2.712;2023-02-23T06:30:46;100934.53;;;9.96;78.50
55291;BME280;41155;39.768;2.712;2023-02-23T06:33:13;100933.88;;;10.06;78.25
55291;BME280;41155;39.768;2.712;2023-02-23T06:35:38;100905.00;;;9.89;77.89
55291;BME280;41155;39.768;2.712;2023-02-23T06:38:04;100922.78;;;10.02;78.10
55291;BME280;41155;39.768;2.712;2023-02-23T06:40:30;100925.69;;;10.01;77.89
55291;BME280;41155;39.768;2.712;2023-02-23T06:42:56;100935.13;;;9.98;78.37
55291;BME280;41155;39.768;2.712;2023-02-23T06:45:21;100942.63;;;9.96;78.83
55291;BME280;41155;39.768;2.712;2023-02-23T06:47:47;100939.34;;;9.94;79.23
55291;BME280;41155;39.768;2.712;2023-02-23T06:50:13;100950.34;;;10.04;79.33
55291;BME280;41155;39.768;2.712;2023-02-23T06:52:40;100949.09;;;10.12;79.40
55291;BME280;41155;39.768;2.712;2023-02-23T06:55:06;100951.66;;;10.18;79.11
55291;BME280;41155;39.768;2.712;2023-02-23T06:57:32;100957.84;;;10.31;77.95
55291;BME280;41155;39.768;2.712;2023-02-23T06:59:58;100949.63;;;10.26;78.42
55291;BME280;41155;39.768;2.712;2023-02-23T07:02:26;100958.44;;;10.33;78.34
55291;BME280;41155;39.768;2.712;2023-02-23T07:04:51;100944.22;;;10.26;79.12
55291;BME280;41155;39.768;2.712;2023-02-23T07:07:17;100956.31;;;10.52;79.25
55291;BME280;41155;39.768;2.712;2023-02-23T07:09:42;100965.63;;;10.44;79.92
55291;BME280;41155;39.768;2.712;2023-02-23T07:12:09;100961.06;;;10.45;80.01
55291;BME280;41155;39.768;2.712;2023-02-23T07:14:35;100956.47;;;10.45;79.81
55291;BME280;41155;39.768;2.712;2023-02-23T07:17:02;100959.28;;;10.50;79.23
55291;BME280;41155;39.768;2.712;2023-02-23T07:19:29;100961.41;;;10.65;78.58
55291;BME280;41155;39.768;2.712;2023-02-23T07:21:54;100960.09;;;10.68;78.25
55291;BME280;41155;39.768;2.712;2023-02-23T07:24:21;100932.00;;;10.69;77.48
55291;BME280;41155;39.768;2.712;2023-02-23T07:26:46;100946.66;;;10.73;77.42
55291;BME280;41155;39.768;2.712;2023-02-23T07:29:13;100921.13;;;10.63;77.42
55291;BME280;41155;39.768;2.712;2023-02-23T07:31:40;100958.59;;;10.94;77.41
55291;BME280;41155;39.768;2.712;2023-02-23T07:34:06;100955.13;;;10.98;77.73
55291;BME280;41155;39.768;2.712;2023-02-23T07:36:32;100954.97;;;11.05;77.96
55291;BME280;41155;39.768;2.712;2023-02-23T07:38:57;100948.31;;;11.13;77.96
55291;BME280;41155;39.768;2.712;2023-02-23T07:41:23;100939.78;;;11.21;77.51
55291;BME280;41155;39.768;2.712;2023-02-23T07:43:49;100933.31;;;11.22;77.66
55291;BME280;41155;39.768;2.712;2023-02-23T07:46:14;100937.50;;;11.51;77.70
55291;BME280;41155;39.768;2.712;2023-02-23T07:48:41;100929.84;;;11.48;77.54
55291;BME280;41155;39.768;2.712;2023-02-23T07:51:13;100935.41;;;11.59;77.41
55291;BME280;41155;39.768;2.712;2023-02-23T07:53:40;100920.75;;;11.54;76.62
55291;BME280;41155;39.768;2.712;2023-02-23T07:56:07;100937.97;;;11.70;75.92
55291;BME280;41155;39.768;2.712;2023-02-23T07:58:35;100939.13;;;11.74;75.84
55291;BME280;41155;39.768;2.712;2023-02-23T08:01:01;100959.16;;;11.79;75.88
55291;BME280;41155;39.768;2.712;2023-02-23T08:03:26;100959.94;;;11.96;75.22
55291;BME280;41155;39.768;2.712;2023-02-23T08:05:52;100956.25;;;12.07;74.91
55291;BME280;41155;39.768;2.712;2023-02-23T08:08:17;100959.13;;;12.23;74.50
55291;BME280;41155;39.768;2.712;2023-02-23T08:10:43;100957.41;;;12.43;73.83
55291;BME280;41155;39.768;2.712;2023-02-23T08:13:09;100960.25;;;12.59;73.19
55291;BME280;41155;39.768;2.712;2023-02-23T08:15:34;100965.88;;;12.84;72.57
55291;BME280;41155;39.768;2.712;2023-02-23T08:18:00;100966.53;;;13.02;72.15
55291;BME280;41155;39.768;2.712;2023-02-23T08:20:29;100967.13;;;13.09;71.98
55291;BME280;41155;39.768;2.712;2023-02-23T08:22:56;100969.25;;;13.02;72.21
55291;BME280;41155;39.768;2.712;2023-02-23T08:25:22;100962.84;;;13.76;70.80
55291;BME280;41155;39.768;2.712;2023-02-23T08:27:48;100970.91;;;14.85;67.87
55291;BME280;41155;39.768;2.712;2023-02-23T08:30:17;100964.78;;;15.49;63.03
55291;BME280;41155;39.768;2.712;2023-02-23T08:32:43;100955.22;;;16.51;60.68
55291;BME280;41155;39.768;2.712;2023-02-23T08:35:09;100977.16;;;17.52;58.63
55291;BME280;41155;39.768;2.712;2023-02-23T08:37:35;100976.31;;;18.00;55.15
55291;BME280;41155;39.768;2.712;2023-02-23T08:40:00;100974.31;;;19.09;53.24
55291;BME280;41155;39.768;2.712;2023-02-23T08:42:26;100970.06;;;20.22;50.57
55291;BME280;41155;39.768;2.712;2023-02-23T08:44:52;100976.53;;;21.16;47.94
55291;BME280;41155;39.768;2.712;2023-02-23T08:47:18;100943.41;;;21.61;46.18
55291;BME280;41155;39.768;2.712;2023-02-23T08:49:50;100974.38;;;22.45;43.82
55291;BME280;41155;39.768;2.712;2023-02-23T08:52:19;100977.63;;;22.29;43.28
55291;BME280;41155;39.768;2.712;2023-02-23T08:54:44;100979.19;;;23.00;42.56
55291;BME280;41155;39.768;2.712;2023-02-23T08:57:10;100966.63;;;23.20;41.64
55291;BME280;41155;39.768;2.712;2023-02-23T08:59:36;100975.91;;;23.15;41.89
55291;BME280;41155;39.768;2.712;2023-02-23T09:02:04;100988.47;;;22.52;43.03
55291;BME280;41155;39.768;2.712;2023-02-23T09:04:33;100979.81;;;22.88;42.67
55291;BME280;41155;39.768;2.712;2023-02-23T09:07:03;100985.28;;;23.53;41.94
55291;BME280;41155;39.768;2.712;2023-02-23T09:09:29;100980.63;;;24.46;39.58
55291;BME280;41155;39.768;2.712;2023-02-23T09:11:54;100986.41;;;24.86;38.71
55291;BME280;41155;39.768;2.712;2023-02-23T09:14:20;100958.47;;;25.00;37.32
55291;BME280;41155;39.768;2.712;2023-02-23T09:16:45;100982.81;;;25.43;37.02
55291;BME280;41155;39.768;2.712;2023-02-23T09:19:12;100987.91;;;25.08;37.77
55291;BME280;41155;39.768;2.712;2023-02-23T09:21:38;100991.50;;;24.63;38.12
55291;BME280;41155;39.768;2.712;2023-02-23T09:24:04;100997.22;;;23.95;38.89
55291;BME280;41155;39.768;2.712;2023-02-23T09:26:31;100987.16;;;22.67;40.80
55291;BME280;41155;39.768;2.712;2023-02-23T09:28:58;100987.22;;;21.66;43.38
55291;BME280;41155;39.768;2.712;2023-02-23T09:31:24;100990.13;;;20.08;46.41
55291;BME280;41155;39.768;2.712;2023-02-23T09:33:50;100972.81;;;18.51;51.27
55291;BME280;41155;39.768;2.712;2023-02-23T09:36:24;100952.78;;;18.37;52.16
55291;BME280;41155;39.768;2.712;2023-02-23T09:38:52;100962.03;;;17.84;54.15
55291;BME280;41155;39.768;2.712;2023-02-23T09:49:23;100937.25;;;17.56;54.81
55291;BME280;41155;39.768;2.712;2023-02-23T09:51:53;100933.09;;;17.40;55.13
55291;BME280;41155;39.768;2.712;2023-02-23T09:54:23;100913.13;;;17.21;55.48
55291;BME280;41155;39.768;2.712;2023-02-23T09:56:52;100933.56;;;17.66;54.81
55291;BME280;41155;39.768;2.712;2023-02-23T09:59:21;100935.44;;;17.71;54.61
55291;BME280;41155;39.768;2.712;2023-02-23T10:06:49;100913.25;;;18.15;53.44
55291;BME280;41155;39.768;2.712;2023-02-23T10:18:32;100895.56;;;21.44;45.36
55291;BME280;41155;39.768;2.712;2023-02-23T10:21:06;100897.19;;;21.63;43.57
55291;BME280;41155;39.768;2.712;2023-02-23T10:23:44;100928.03;;;20.26;46.95
55291;BME280;41155;39.768;2.712;2023-02-23T10:26:16;100903.91;;;20.37;46.89
55291;BME280;41155;39.768;2.712;2023-02-23T10:28:42;100899.13;;;20.74;45.29
55291;BME280;41155;39.768;2.712;2023-02-23T10:31:42;100885.25;;;21.76;43.09
55291;BME280;41155;39.768;2.712;2023-02-23T10:34:13;100904.75;;;22.62;41.30
55291;BME280;41155;39.768;2.712;2023-02-23T10:36:58;100887.66;;;22.04;42.73
55291;BME280;41155;39.768;2.712;2023-02-23T10:39:25;100868.56;;;22.89;40.31
55291;BME280;41155;39.768;2.712;2023-02-23T10:41:51;100870.66;;;22.45;40.58
55291;BME280;41155;39.768;2.712;2023-02-23T10:44:23;100880.13;;;22.74;40.57
55291;BME280;41155;39.768;2.712;2023-02-23T10:46:53;100912.44;;;23.62;39.33
55291;BME280;41155;39.768;2.712;2023-02-23T10:49:22;100876.97;;;23.82;38.07
55291;BME280;41155;39.768;2.712;2023-02-23T10:51:49;100908.75;;;23.58;38.97
55291;BME280;41155;39.768;2.712;2023-02-23T10:54:43;100914.03;;;23.63;38.57
55291;BME280;41155;39.768;2.712;2023-02-23T10:57:22;100930.16;;;24.03;38.44
55291;BME280;41155;39.768;2.712;2023-02-23T11:00:05;100919.44;;;24.23;37.11
55291;BME280;41155;39.768;2.712;2023-02-23T11:02:32;100920.53;;;23.88;37.53
55291;BME280;41155;39.768;2.712;2023-02-23T11:05:01;100899.50;;;24.84;36.15
55291;BME280;41155;39.768;2.712;2023-02-23T11:07:31;100905.72;;;24.93;35.71
55291;BME280;41155;39.768;2.712;2023-02-23T11:12:42;100914.06;;;25.17;35.05
55291;BME280;41155;39.768;2.712;2023-02-23T11:17:55;100902.72;;;25.84;34.48
55291;BME280;41155;39.768;2.712;2023-02-23T11:20:29;100873.50;;;25.99;33.94
55291;BME280;41155;39.768;2.712;2023-02-23T11:22:55;100883.06;;;26.73;32.11
55291;BME280;41155;39.768;2.712;2023-02-23T11:25:27;100869.84;;;26.82;31.65
55291;BME280;41155;39.768;2.712;2023-02-23T11:27:56;100875.72;;;27.29;31.37
55291;BME280;41155;39.768;2.712;2023-02-23T11:30:33;100883.22;;;26.80;31.87
55291;BME280;41155;39.768;2.712;2023-02-23T11:33:03;100889.56;;;26.81;31.58
55291;BME280;41155;39.768;2.712;2023-02-23T11:35:36;100851.88;;;27.79;30.27
55291;BME280;41155;39.768;2.712;2023-02-23T11:38:22;100863.69;;;28.80;29.34
55291;BME280;41155;39.768;2.712;2023-02-23T11:41:14;100853.69;;;27.36;30.95
55291;BME280;41155;39.768;2.712;2023-02-23T11:43:58;100824.19;;;28.44;28.66
55291;BME280;41155;39.768;2.712;2023-02-23T11:46:27;100815.91;;;29.24;28.42
55291;BME280;41155;39.768;2.712;2023-02-23T11:48:59;100798.88;;;29.59;27.49
55291;BME280;41155;39.768;2.712;2023-02-23T11:51:37;100823.50;;;29.87;27.46
55291;BME280;41155;39.768;2.712;2023-02-23T11:54:06;100785.41;;;27.66;29.43
55291;BME280;41155;39.768;2.712;2023-02-23T11:56:34;100805.41;;;27.56;29.78
55291;BME280;41155;39.768;2.712;2023-02-23T11:59:06;100786.88;;;27.60;29.50
55291;BME280;41155;39.768;2.712;2023-02-23T12:01:42;100789.78;;;27.67;30.08
55291;BME280;41155;39.768;2.712;2023-02-23T12:04:29;100797.41;;;29.35;27.97
55291;BME280;41155;39.768;2.712;2023-02-23T12:15:47;100766.00;;;28.78;28.09
55291;BME280;41155;39.768;2.712;2023-02-23T12:18:42;100755.41;;;28.87;27.89
55291;BME280;41155;39.768;2.712;2023-02-23T12:26:57;100760.91;;;28.34;27.64
55291;BME280;41155;39.768;2.712;2023-02-23T12:32:20;100750.59;;;28.57;27.46
55291;BME280;41155;39.768;2.712;2023-02-23T12:34:53;100751.75;;;29.70;26.34
55291;BME280;41155;39.768;2.712;2023-02-23T12:37:38;100746.28;;;30.18;25.85
55291;BME280;41155;39.768;2.712;2023-02-23T12:40:17;100737.81;;;28.76;27.46
55291;BME280;41155;39.768;2.712;2023-02-23T12:43:06;100743.34;;;28.76;27.71
55291;BME280;41155;39.768;2.712;2023-02-23T12:45:46;100735.31;;;28.97;27.58
55291;BME280;41155;39.768;2.712;2023-02-23T12:48:27;100721.44;;;28.44;27.83
55291;BME280;41155;39.768;2.712;2023-02-23T12:50:55;100741.31;;;28.99;27.39
55291;BME280;41155;39.768;2.712;2023-02-23T12:53:43;100704.22;;;28.88;27.35
55291;BME280;41155;39.768;2.712;2023-02-23T13:18:01;100745.78;;;25.68;33.19
55291;BME280;41155;39.768;2.712;2023-02-23T13:20:44;100732.25;;;25.35;33.79
55291;BME280;41155;39.768;2.712;2023-02-23T13:29:01;100711.97;;;26.67;31.75
55291;BME280;41155;39.768;2.712;2023-02-23T13:31:38;100711.94;;;27.37;30.74
55291;BME280;41155;39.768;2.712;2023-02-23T13:34:20;100745.09;;;26.79;31.35
55291;BME280;41155;39.768;2.712;2023-02-23T13:36:48;100714.38;;;26.68;31.59
55291;BME280;41155;39.768;2.712;2023-02-23T13:39:43;100701.31;;;27.82;30.32
55291;BME280;41155;39.768;2.712;2023-02-23T13:50:20;100706.00;;;27.19;31.13
55291;BME280;41155;39.768;2.712;2023-02-23T13:52:48;100698.75;;;27.92;29.39
55291;BME280;41155;39.768;2.712;2023-02-23T13:57:55;100695.66;;;26.14;31.78
55291;BME280;41155;39.768;2.712;2023-02-23T14:00:28;100699.78;;;25.32;33.58
55291;BME280;41155;39.768;2.712;2023-02-23T14:02:54;100705.19;;;24.64;35.35
55291;BME280;41155;39.768;2.712;2023-02-23T14:05:22;100689.19;;;24.94;34.44
55291;BME280;41155;39.768;2.712;2023-02-23T14:08:00;100688.28;;;24.53;34.99
55291;BME280;41155;39.768;2.712;2023-02-23T14:10:27;100697.69;;;23.36;37.63
55291;BME280;41155;39.768;2.712;2023-02-23T14:13:24;100698.25;;;23.30;37.84
55291;BME280;41155;39.768;2.712;2023-02-23T14:18:50;100704.81;;;23.16;38.44
55291;BME280;41155;39.768;2.712;2023-02-23T14:21:28;100696.34;;;22.50;39.84
55291;BME280;41155;39.768;2.712;2023-02-23T14:24:22;100704.72;;;21.51;42.18
55291;BME280;41155;39.768;2.712;2023-02-23T14:29:38;100692.75;;;20.37;45.36
55291;BME280;41155;39.768;2.712;2023-02-23T14:39:50;100656.59;;;19.64;47.15
55291;BME280;41155;39.768;2.712;2023-02-23T14:42:22;100663.59;;;19.48;47.51
55291;BME280;41155;39.768;2.712;2023-02-23T14:44:48;100642.19;;;19.05;48.99
55291;BME280;41155;39.768;2.712;2023-02-23T14:47:20;100668.66;;;18.95;49.05
55291;BME280;41155;39.768;2.712;2023-02-23T14:49:57;100667.84;;;18.95;49.24
55291;BME280;41155;39.768;2.712;2023-02-23T14:52:26;100658.66;;;19.13;48.80
55291;BME280;41155;39.768;2.712;2023-02-23T14:57:40;100652.00;;;19.06;49.00
55291;BME280;41155;39.768;2.712;2023-02-23T15:00:27;100658.47;;;18.73;50.35
55291;BME280;41155;39.768;2.712;2023-02-23T15:05:30;100643.81;;;18.28;51.53
55291;BME280;41155;39.768;2.712;2023-02-23T15:08:22;100612.84;;;18.33;50.92
55291;BME280;41155;39.768;2.712;2023-02-23T15:10:51;100638.91;;;18.66;50.85
55291;BME280;41155;39.768;2.712;2023-02-23T15:13:30;100641.06;;;18.56;50.74
55291;BME280;41155;39.768;2.712;2023-02-23T15:16:07;100635.50;;;18.19;51.50
55291;BME280;41155;39.768;2.712;2023-02-23T15:18:37;100613.66;;;18.33;51.45
55291;BME280;41155;39.768;2.712;2023-02-23T15:21:14;100617.72;;;18.08;51.86
55291;BME280;41155;39.768;2.712;2023-02-23T15:23:44;100592.84;;;17.49;53.28
55291;BME280;41155;39.768;2.712;2023-02-23T15:28:46;100630.06;;;17.45;55.24
55291;BME280;41155;39.768;2.712;2023-02-23T15:31:11;100630.06;;;17.26;55.23